sensor_id;sensor_type;location;lat;lon;timestamp;pressure;altitude;pressure_sealevel;temperature;humidity
11049;BME280;5577;42.706;23.160;2022-11-12T00:00:42;95503.53;;;8.63;100.00
11049;BME280;5577;42.706;23.160;2022-11-12T00:03:26;95512.41;;;8.67;100.00
11049;BME280;5577;42.706;23.160;2022-11-12T00:06:10;95503.69;;;8.66;100.00
11049;BME280;5577;42.706;23.160;2022-11-12T00:08:54;95492.19;;;8.62;100.00
11049;BME280;5577;42.706;23.160;2022-11-12T00:11:38;95491.75;;;8.69;100.00
11049;BME280;5577;42.706;23.160;2022-11-12T00:14:22;95488.34;;;8.68;100.00
11049;BME280;5577;42.706;23.160;2022-11-12T00:17:06;95486.16;;;8.70;100.00
11049;BME280;5577;42.706;23.160;2022-11-12T00:19:50;95436.75;;;8.40;100.00
11049;BME280;5577;42.706;23.160;2022-11-12T00:22:34;95494.69;;;8.67;100.00
11049;BME280;5577;42.706;23.160;2022-11-12T00:25:17;95486.47;;;8.69;100.00
11049;BME280;5577;42.706;23.160;2022-11-12T00:28:07;95499.59;;;8.60;100.00
11049;BME280;5577;42.706;23.160;2022-11-12T00:30:51;95497.88;;;8.56;100.00
11049;BME280;5577;42.706;23.160;2022-11-12T00:33:38;95499.94;;;8.59;100.00
11049;BME280;5577;42.706;23.160;2022-11-12T00:36:23;95507.47;;;8.52;100.00
11049;BME280;5577;42.706;23.160;2022-11-12T00:39:07;95498.53;;;8.61;100.00
11049;BME280;5577;42.706;23.160;2022-11-12T00:41:51;95493.28;;;8.48;100.00
11049;BME280;5577;42.706;23.160;2022-11-12T00:44:35;95497.44;;;8.40;100.00
11049;BME280;5577;42.706;23.160;2022-11-12T00:47:19;95496.28;;;8.33;100.00
11049;BME280;5577;42.706;23.160;2022-11-12T00:50:03;95507.13;;;8.31;100.00
11049;BME280;5577;42.706;23.160;2022-11-12T00:52:47;95491.31;;;8.31;100.00
11049;BME280;5577;42.706;23.160;2022-11-12T00:55:34;95489.94;;;8.20;100.00
11049;BME280;5577;42.706;23.160;2022-11-12T00:58:17;95486.75;;;8.23;100.00
11049;BME280;5577;42.706;23.160;2022-11-12T01:01:13;95479.78;;;8.27;100.00
11049;BME280;5577;42.706;23.160;2022-11-12T01:03:58;95467.78;;;8.21;100.00
11049;BME280;5577;42.706;23.160;2022-11-12T01:06:43;95468.34;;;8.18;100.00
11049;BME280;5577;42.706;23.160;2022-11-12T01:09:27;95482.63;;;8.17;100.00
11049;BME280;5577;42.706;23.160;2022-11-12T01:12:10;95482.44;;;8.14;100.00
11049;BME280;5577;42.706;23.160;2022-11-12T01:14:54;95477.63;;;8.16;100.00
11049;BME280;5577;42.706;23.160;2022-11-12T01:17:39;95468.81;;;7.98;100.00
11049;BME280;5577;42.706;23.160;2022-11-12T01:20:23;95469.69;;;7.94;100.00
11049;BME280;5577;42.706;23.160;2022-11-12T01:23:07;95472.72;;;8.01;100.00
11049;BME280;5577;42.706;23.160;2022-11-12T01:25:51;95475.22;;;8.06;100.00
11049;BME280;5577;42.706;23.160;2022-11-12T01:28:35;95477.84;;;8.06;100.00
11049;BME280;5577;42.706;23.160;2022-11-12T01:31:34;95473.44;;;8.15;100.00
11049;BME280;5577;42.706;23.160;2022-11-12T01:34:18;95476.25;;;8.18;100.00
11049;BME280;5577;42.706;23.160;2022-11-12T01:37:02;95474.03;;;8.25;100.00
11049;BME280;5577;42.706;23.160;2022-11-12T01:39:46;95469.53;;;8.26;100.00
11049;BME280;5577;42.706;23.160;2022-11-12T01:42:31;95402.69;;;7.95;100.00
11049;BME280;5577;42.706;23.160;2022-11-12T01:45:15;95460.44;;;8.32;100.00
11049;BME280;5577;42.706;23.160;2022-11-12T01:47:59;95457.13;;;8.26;100.00
11049;BME280;5577;42.706;23.160;2022-11-12T01:50:43;95451.94;;;8.35;100.00
11049;BME280;5577;42.706;23.160;2022-11-12T01:53:31;95441.59;;;8.25;100.00
11049;BME280;5577;42.706;23.160;2022-11-12T01:56:17;95438.56;;;8.18;100.00
11049;BME280;5577;42.706;23.160;2022-11-12T01:59:11;95459.88;;;8.21;100.00
11049;BME280;5577;42.706;23.160;2022-11-12T02:01:57;95448.72;;;8.24;100.00
11049;BME280;5577;42.706;23.160;2022-11-12T02:04:43;95455.75;;;8.29;100.00
11049;BME280;5577;42.706;23.160;2022-11-12T02:07:29;95452.31;;;8.28;100.00
11049;BME280;5577;42.706;23.160;2022-11-12T02:10:14;95451.06;;;8.26;100.00
11049;BME280;5577;42.706;23.160;2022-11-12T02:12:58;95444.53;;;8.23;100.00
11049;BME280;5577;42.706;23.160;2022-11-12T02:16:03;95448.94;;;8.14;100.00
11049;BME280;5577;42.706;23.160;2022-11-12T02:18:47;95445.31;;;8.10;100.00
11049;BME280;5577;42.706;23.160;2022-11-12T02:21:32;95454.19;;;8.14;100.00
11049;BME280;5577;42.706;23.160;2022-11-12T02:27:00;95454.31;;;8.09;100.00
11049;BME280;5577;42.706;23.160;2022-11-12T02:29:44;95455.72;;;8.07;100.00
11049;BME280;5577;42.706;23.160;2022-11-12T02:32:31;95454.41;;;8.04;100.00
11049;BME280;5577;42.706;23.160;2022-11-12T02:35:16;95445.75;;;8.04;100.00
11049;BME280;5577;42.706;23.160;2022-11-12T02:38:00;95451.84;;;8.13;100.00
11049;BME280;5577;42.706;23.160;2022-11-12T02:40:44;95447.97;;;8.10;100.00
11049;BME280;5577;42.706;23.160;2022-11-12T02:43:28;95445.75;;;8.04;100.00
11049;BME280;5577;42.706;23.160;2022-11-12T02:46:12;95456.47;;;8.07;100.00
11049;BME280;5577;42.706;23.160;2022-11-12T02:48:56;95447.97;;;8.10;100.00
11049;BME280;5577;42.706;23.160;2022-11-12T02:51:41;95445.53;;;8.14;100.00
11049;BME280;5577;42.706;23.160;2022-11-12T02:54:24;95456.06;;;8.14;100.00
11049;BME280;5577;42.706;23.160;2022-11-12T02:57:08;95444.84;;;8.08;100.00
11049;BME280;5577;42.706;23.160;2022-11-12T02:59:52;95453.44;;;8.14;100.00
11049;BME280;5577;42.706;23.160;2022-11-12T03:02:36;95449.72;;;8.15;100.00
11049;BME280;5577;42.706;23.160;2022-11-12T03:05:28;95448.16;;;8.14;100.00
11049;BME280;5577;42.706;23.160;2022-11-12T03:08:13;95457.13;;;8.13;100.00
11049;BME280;5577;42.706;23.160;2022-11-12T03:10:57;95455.00;;;8.15;100.00
11049;BME280;5577;42.706;23.160;2022-11-12T03:13:41;95448.63;;;8.16;100.00
11049;BME280;5577;42.706;23.160;2022-11-12T03:16:26;95450.22;;;8.17;100.00
11049;BME280;5577;42.706;23.160;2022-11-12T03:19:10;95449.88;;;8.18;100.00
11049;BME280;5577;42.706;23.160;2022-11-12T03:21:53;95448.34;;;8.17;100.00
11049;BME280;5577;42.706;23.160;2022-11-12T03:24:38;95451.19;;;8.07;100.00
11049;BME280;5577;42.706;23.160;2022-11-12T03:27:21;95451.38;;;8.11;100.00
11049;BME280;5577;42.706;23.160;2022-11-12T03:30:06;95444.19;;;8.03;100.00
11049;BME280;5577;42.706;23.160;2022-11-12T03:32:50;95453.16;;;8.15;100.00
11049;BME280;5577;42.706;23.160;2022-11-12T03:35:34;95458.88;;;8.17;100.00
11049;BME280;5577;42.706;23.160;2022-11-12T03:38:19;95451.25;;;8.16;100.00
11049;BME280;5577;42.706;23.160;2022-11-12T03:41:03;95449.59;;;8.20;100.00
11049;BME280;5577;42.706;23.160;2022-11-12T03:43:47;95451.75;;;8.18;100.00
11049;BME280;5577;42.706;23.160;2022-11-12T03:46:31;95445.63;;;8.22;100.00
11049;BME280;5577;42.706;23.160;2022-11-12T03:49:15;95446.13;;;8.11;100.00
11049;BME280;5577;42.706;23.160;2022-11-12T03:51:59;95443.56;;;8.06;100.00
11049;BME280;5577;42.706;23.160;2022-11-12T03:54:43;95446.09;;;7.89;100.00
11049;BME280;5577;42.706;23.160;2022-11-12T03:57:27;95449.69;;;7.79;100.00
11049;BME280;5577;42.706;23.160;2022-11-12T04:00:11;95461.19;;;7.83;100.00
11049;BME280;5577;42.706;23.160;2022-11-12T04:02:57;95462.78;;;7.84;100.00
11049;BME280;5577;42.706;23.160;2022-11-12T04:05:41;95459.19;;;7.80;100.00
11049;BME280;5577;42.706;23.160;2022-11-12T04:08:44;95452.19;;;7.62;100.00
11049;BME280;5577;42.706;23.160;2022-11-12T04:11:28;95455.19;;;7.56;100.00
11049;BME280;5577;42.706;23.160;2022-11-12T04:14:12;95441.63;;;7.49;100.00
11049;BME280;5577;42.706;23.160;2022-11-12T04:16:56;95446.16;;;7.48;100.00
11049;BME280;5577;42.706;23.160;2022-11-12T04:19:58;95436.69;;;7.34;100.00
11049;BME280;5577;42.706;23.160;2022-11-12T04:23:01;95421.06;;;7.10;100.00
11049;BME280;5577;42.706;23.160;2022-11-12T04:25:45;95421.72;;;7.02;100.00
11049;BME280;5577;42.706;23.160;2022-11-12T04:28:48;95424.06;;;6.90;100.00
11049;BME280;5577;42.706;23.160;2022-11-12T04:31:51;95429.44;;;6.85;100.00
11049;BME280;5577;42.706;23.160;2022-11-12T04:34:35;95437.03;;;6.87;100.00
11049;BME280;5577;42.706;23.160;2022-11-12T04:37:20;95439.56;;;6.78;100.00
11049;BME280;5577;42.706;23.160;2022-11-12T04:40:05;95444.31;;;6.76;100.00
11049;BME280;5577;42.706;23.160;2022-11-12T04:43:11;95441.56;;;6.68;100.00
11049;BME280;5577;42.706;23.160;2022-11-12T04:46:14;95443.00;;;6.60;100.00
11049;BME280;5577;42.706;23.160;2022-11-12T04:48:59;95425.06;;;6.49;100.00
11049;BME280;5577;42.706;23.160;2022-11-12T04:51:43;95440.56;;;6.50;100.00
11049;BME280;5577;42.706;23.160;2022-11-12T04:54:46;95446.13;;;6.49;100.00
11049;BME280;5577;42.706;23.160;2022-11-12T04:57:30;95447.34;;;6.38;100.00
11049;BME280;5577;42.706;23.160;2022-11-12T05:00:14;95441.78;;;6.39;100.00
11049;BME280;5577;42.706;23.160;2022-11-12T05:02:58;95441.88;;;6.34;100.00
11049;BME280;5577;42.706;23.160;2022-11-12T05:05:42;95418.72;;;6.18;100.00
11049;BME280;5577;42.706;23.160;2022-11-12T05:08:26;95446.75;;;6.41;100.00
11049;BME280;5577;42.706;23.160;2022-11-12T05:11:10;95447.44;;;6.46;100.00
11049;BME280;5577;42.706;23.160;2022-11-12T05:13:54;95450.09;;;6.46;100.00
11049;BME280;5577;42.706;23.160;2022-11-12T05:16:38;95447.16;;;6.48;100.00
11049;BME280;5577;42.706;23.160;2022-11-12T05:19:22;95449.66;;;6.39;100.00
11049;BME280;5577;42.706;23.160;2022-11-12T05:22:09;95458.56;;;6.43;100.00
11049;BME280;5577;42.706;23.160;2022-11-12T05:24:53;95460.03;;;6.49;100.00
11049;BME280;5577;42.706;23.160;2022-11-12T05:27:37;95449.19;;;6.37;100.00
11049;BME280;5577;42.706;23.160;2022-11-12T05:30:20;95463.53;;;6.45;100.00
11049;BME280;5577;42.706;23.160;2022-11-12T05:33:04;95454.66;;;6.41;100.00
11049;BME280;5577;42.706;23.160;2022-11-12T05:35:48;95462.22;;;6.61;100.00
11049;BME280;5577;42.706;23.160;2022-11-12T05:38:32;95459.72;;;6.69;100.00
11049;BME280;5577;42.706;23.160;2022-11-12T05:41:16;95471.72;;;6.75;100.00
11049;BME280;5577;42.706;23.160;2022-11-12T05:44:00;95461.47;;;6.74;100.00
11049;BME280;5577;42.706;23.160;2022-11-12T05:46:44;95477.88;;;6.84;100.00
11049;BME280;5577;42.706;23.160;2022-11-12T05:49:28;95475.00;;;6.99;100.00
11049;BME280;5577;42.706;23.160;2022-11-12T05:52:12;95474.78;;;7.09;100.00
11049;BME280;5577;42.706;23.160;2022-11-12T05:54:56;95472.78;;;7.20;100.00
11049;BME280;5577;42.706;23.160;2022-11-12T05:57:40;95467.22;;;7.21;100.00
11049;BME280;5577;42.706;23.160;2022-11-12T06:00:24;95469.84;;;7.35;100.00
11049;BME280;5577;42.706;23.160;2022-11-12T06:03:10;95475.22;;;7.43;100.00
11049;BME280;5577;42.706;23.160;2022-11-12T06:05:55;95470.81;;;7.39;100.00
11049;BME280;5577;42.706;23.160;2022-11-12T06:08:39;95480.97;;;7.18;100.00
11049;BME280;5577;42.706;23.160;2022-11-12T06:11:22;95479.69;;;7.16;100.00
11049;BME280;5577;42.706;23.160;2022-11-12T06:14:06;95476.56;;;7.14;100.00
11049;BME280;5577;42.706;23.160;2022-11-12T06:16:50;95477.03;;;7.02;100.00
11049;BME280;5577;42.706;23.160;2022-11-12T06:19:34;95496.06;;;6.99;100.00
11049;BME280;5577;42.706;23.160;2022-11-12T06:22:18;95489.63;;;7.05;100.00
11049;BME280;5577;42.706;23.160;2022-11-12T06:25:03;95487.66;;;7.11;100.00
11049;BME280;5577;42.706;23.160;2022-11-12T06:27:48;95493.16;;;7.28;100.00
11049;BME280;5577;42.706;23.160;2022-11-12T06:30:32;95489.66;;;7.32;100.00
11049;BME280;5577;42.706;23.160;2022-11-12T06:33:16;95488.69;;;7.55;100.00
11049;BME280;5577;42.706;23.160;2022-11-12T06:36:01;95480.56;;;7.65;100.00
11049;BME280;5577;42.706;23.160;2022-11-12T06:38:46;95474.72;;;7.55;100.00
11049;BME280;5577;42.706;23.160;2022-11-12T06:41:31;95478.34;;;7.59;100.00
11049;BME280;5577;42.706;23.160;2022-11-12T06:44:14;95479.00;;;7.64;100.00
11049;BME280;5577;42.706;23.160;2022-11-12T06:46:58;95484.97;;;7.70;100.00
11049;BME280;5577;42.706;23.160;2022-11-12T06:49:42;95485.94;;;7.87;100.00
11049;BME280;5577;42.706;23.160;2022-11-12T06:52:26;95446.09;;;7.75;100.00
11049;BME280;5577;42.706;23.160;2022-11-12T06:55:10;95465.31;;;7.89;100.00
11049;BME280;5577;42.706;23.160;2022-11-12T06:57:54;95487.66;;;7.92;100.00
11049;BME280;5577;42.706;23.160;2022-11-12T07:00:39;95464.16;;;7.82;100.00
11049;BME280;5577;42.706;23.160;2022-11-12T07:03:22;95490.28;;;8.05;100.00
11049;BME280;5577;42.706;23.160;2022-11-12T07:06:12;95480.56;;;8.14;100.00
11049;BME280;5577;42.706;23.160;2022-11-12T07:08:56;95483.09;;;8.33;100.00
11049;BME280;5577;42.706;23.160;2022-11-12T07:11:40;95478.97;;;8.40;100.00
11049;BME280;5577;42.706;23.160;2022-11-12T07:14:24;95474.97;;;8.43;100.00
11049;BME280;5577;42.706;23.160;2022-11-12T07:17:08;95433.00;;;8.19;100.00
11049;BME280;5577;42.706;23.160;2022-11-12T07:19:52;95473.47;;;8.50;100.00
11049;BME280;5577;42.706;23.160;2022-11-12T07:22:36;95478.69;;;8.64;100.00
11049;BME280;5577;42.706;23.160;2022-11-12T07:25:20;95477.53;;;8.56;100.00
11049;BME280;5577;42.706;23.160;2022-11-12T07:28:04;95492.25;;;8.71;100.00
11049;BME280;5577;42.706;23.160;2022-11-12T07:30:57;95467.22;;;8.68;100.00
11049;BME280;5577;42.706;23.160;2022-11-12T07:33:41;95422.97;;;8.43;100.00
11049;BME280;5577;42.706;23.160;2022-11-12T07:36:25;95475.38;;;8.80;100.00
11049;BME280;5577;42.706;23.160;2022-11-12T07:39:09;95461.88;;;8.82;100.00
11049;BME280;5577;42.706;23.160;2022-11-12T07:41:53;95481.25;;;9.00;100.00
11049;BME280;5577;42.706;23.160;2022-11-12T07:44:37;95477.38;;;9.06;100.00
11049;BME280;5577;42.706;23.160;2022-11-12T07:47:21;95486.19;;;9.01;100.00
11049;BME280;5577;42.706;23.160;2022-11-12T07:50:05;95476.84;;;8.95;100.00
11049;BME280;5577;42.706;23.160;2022-11-12T07:52:49;95489.41;;;8.90;100.00
11049;BME280;5577;42.706;23.160;2022-11-12T07:55:33;95472.91;;;8.84;100.00
11049;BME280;5577;42.706;23.160;2022-11-12T07:58:17;95474.88;;;9.01;100.00
11049;BME280;5577;42.706;23.160;2022-11-12T08:03:52;95493.41;;;9.09;100.00
11049;BME280;5577;42.706;23.160;2022-11-12T08:06:37;95489.63;;;9.02;100.00
11049;BME280;5577;42.706;23.160;2022-11-12T08:09:21;95481.84;;;8.97;100.00
11049;BME280;5577;42.706;23.160;2022-11-12T08:12:05;95490.06;;;8.95;100.00
11049;BME280;5577;42.706;23.160;2022-11-12T08:14:49;95478.19;;;8.84;100.00
11049;BME280;5577;42.706;23.160;2022-11-12T08:17:37;95492.34;;;8.88;100.00
11049;BME280;5577;42.706;23.160;2022-11-12T08:20:21;95493.75;;;8.86;100.00
11049;BME280;5577;42.706;23.160;2022-11-12T08:23:05;95503.69;;;8.88;100.00
11049;BME280;5577;42.706;23.160;2022-11-12T08:25:49;95452.16;;;8.47;100.00
11049;BME280;5577;42.706;23.160;2022-11-12T08:28:35;95498.19;;;8.76;100.00
11049;BME280;5577;42.706;23.160;2022-11-12T08:31:20;95495.53;;;8.76;100.00
11049;BME280;5577;42.706;23.160;2022-11-12T08:34:05;95500.09;;;8.84;100.00
11049;BME280;5577;42.706;23.160;2022-11-12T08:36:58;95471.47;;;8.78;100.00
11049;BME280;5577;42.706;23.160;2022-11-12T08:39:43;95493.97;;;8.98;100.00
11049;BME280;5577;42.706;23.160;2022-11-12T08:42:27;95498.19;;;9.07;100.00
11049;BME280;5577;42.706;23.160;2022-11-12T08:45:11;95499.25;;;8.98;100.00
11049;BME280;5577;42.706;23.160;2022-11-12T08:47:59;95495.66;;;8.94;100.00
11049;BME280;5577;42.706;23.160;2022-11-12T08:50:44;95493.31;;;8.92;100.00
11049;BME280;5577;42.706;23.160;2022-11-12T08:53:28;95494.13;;;9.01;100.00
11049;BME280;5577;42.706;23.160;2022-11-12T08:56:12;95494.91;;;9.02;100.00
11049;BME280;5577;42.706;23.160;2022-11-12T08:58:56;95494.66;;;9.12;100.00
11049;BME280;5577;42.706;23.160;2022-11-12T09:01:39;95491.00;;;8.99;100.00
11049;BME280;5577;42.706;23.160;2022-11-12T09:04:23;95495.34;;;8.95;100.00
11049;BME280;5577;42.706;23.160;2022-11-12T09:07:07;95489.28;;;8.95;100.00
11049;BME280;5577;42.706;23.160;2022-11-12T09:09:51;95493.47;;;8.96;100.00
11049;BME280;5577;42.706;23.160;2022-11-12T09:12:35;95486.34;;;8.96;100.00
11049;BME280;5577;42.706;23.160;2022-11-12T09:15:20;95491.66;;;9.05;100.00
11049;BME280;5577;42.706;23.160;2022-11-12T09:18:07;95482.19;;;9.04;100.00
11049;BME280;5577;42.706;23.160;2022-11-12T09:21:01;95486.09;;;9.06;100.00
11049;BME280;5577;42.706;23.160;2022-11-12T09:23:46;95483.44;;;9.06;100.00
11049;BME280;5577;42.706;23.160;2022-11-12T09:26:30;95473.81;;;9.10;100.00
11049;BME280;5577;42.706;23.160;2022-11-12T09:29:14;95480.31;;;9.04;100.00
11049;BME280;5577;42.706;23.160;2022-11-12T09:31:58;95467.78;;;8.88;100.00
11049;BME280;5577;42.706;23.160;2022-11-12T09:34:42;95485.44;;;9.01;100.00
11049;BME280;5577;42.706;23.160;2022-11-12T09:37:26;95483.84;;;8.91;100.00
11049;BME280;5577;42.706;23.160;2022-11-12T09:40:16;95493.00;;;8.94;100.00
11049;BME280;5577;42.706;23.160;2022-11-12T09:43:10;95491.56;;;8.88;100.00
11049;BME280;5577;42.706;23.160;2022-11-12T09:46:06;95507.53;;;8.82;100.00
11049;BME280;5577;42.706;23.160;2022-11-12T09:48:58;95496.50;;;8.80;100.00
11049;BME280;5577;42.706;23.160;2022-11-12T09:54:34;95469.22;;;8.63;100.00
11049;BME280;5577;42.706;23.160;2022-11-12T09:57:19;95485.16;;;8.80;100.00
11049;BME280;5577;42.706;23.160;2022-11-12T10:00:14;95491.50;;;8.79;100.00
11049;BME280;5577;42.706;23.160;2022-11-12T10:06:25;95451.50;;;8.63;100.00
11049;BME280;5577;42.706;23.160;2022-11-12T10:09:22;95481.78;;;8.88;100.00
11049;BME280;5577;42.706;23.160;2022-11-12T10:24:47;95494.56;;;9.25;100.00
11049;BME280;5577;42.706;23.160;2022-11-12T10:27:37;95485.38;;;9.23;100.00
11049;BME280;5577;42.706;23.160;2022-11-12T10:30:23;95473.53;;;9.12;100.00
11049;BME280;5577;42.706;23.160;2022-11-12T10:33:12;95481.50;;;9.20;100.00
11049;BME280;5577;42.706;23.160;2022-11-12T10:39:02;95488.78;;;9.15;100.00
11049;BME280;5577;42.706;23.160;2022-11-12T10:42:07;95453.50;;;8.88;100.00
11049;BME280;5577;42.706;23.160;2022-11-12T10:44:51;95484.22;;;9.07;100.00
11049;BME280;5577;42.706;23.160;2022-11-12T10:47:38;95488.03;;;8.92;100.00
11049;BME280;5577;42.706;23.160;2022-11-12T10:50:54;95490.59;;;8.83;100.00
11049;BME280;5577;42.706;23.160;2022-11-12T10:53:39;95460.94;;;8.56;100.00
11049;BME280;5577;42.706;23.160;2022-11-12T10:59:28;95496.84;;;8.88;100.00
11049;BME280;5577;42.706;23.160;2022-11-12T11:02:16;95367.88;;;8.06;100.00
11049;BME280;5577;42.706;23.160;2022-11-12T11:05:37;95485.88;;;8.94;100.00
11049;BME280;5577;42.706;23.160;2022-11-12T11:08:41;95493.00;;;8.94;100.00
11049;BME280;5577;42.706;23.160;2022-11-12T11:11:28;95482.69;;;8.83;100.00
11049;BME280;5577;42.706;23.160;2022-11-12T11:17:12;95487.44;;;8.73;100.00
11049;BME280;5577;42.706;23.160;2022-11-12T11:19:57;95484.31;;;8.71;100.00
11049;BME280;5577;42.706;23.160;2022-11-12T11:22:44;95483.06;;;8.68;100.00
11049;BME280;5577;42.706;23.160;2022-11-12T11:25:31;95480.72;;;8.67;100.00
11049;BME280;5577;42.706;23.160;2022-11-12T11:31:18;95466.69;;;8.80;100.00
11049;BME280;5577;42.706;23.160;2022-11-12T11:37:28;95479.84;;;9.02;100.00
11049;BME280;5577;42.706;23.160;2022-11-12T11:43:31;95482.13;;;8.95;100.00
11049;BME280;5577;42.706;23.160;2022-11-12T11:52:50;95455.56;;;9.31;100.00
11049;BME280;5577;42.706;23.160;2022-11-12T11:56:24;95467.41;;;9.33;100.00
11049;BME280;5577;42.706;23.160;2022-11-12T12:05:32;95411.19;;;8.71;100.00
11049;BME280;5577;42.706;23.160;2022-11-12T12:11:57;95464.44;;;9.26;100.00
11049;BME280;5577;42.706;23.160;2022-11-12T12:23:21;95449.44;;;10.17;100.00
11049;BME280;5577;42.706;23.160;2022-11-12T12:26:13;95442.91;;;10.23;100.00
11049;BME280;5577;42.706;23.160;2022-11-12T12:29:33;95444.91;;;10.34;100.00
11049;BME280;5577;42.706;23.160;2022-11-12T12:32:34;95446.53;;;11.07;100.00
11049;BME280;5577;42.706;23.160;2022-11-12T12:35:41;95441.94;;;10.53;100.00
11049;BME280;5577;42.706;23.160;2022-11-12T12:38:43;95444.63;;;10.19;100.00
11049;BME280;5577;42.706;23.160;2022-11-12T12:41:53;95445.22;;;10.07;100.00
11049;BME280;5577;42.706;23.160;2022-11-12T12:44:45;95449.97;;;9.88;100.00
11049;BME280;5577;42.706;23.160;2022-11-12T12:47:51;95392.28;;;9.26;100.00
11049;BME280;5577;42.706;23.160;2022-11-12T12:50:38;95426.38;;;9.36;100.00
11049;BME280;5577;42.706;23.160;2022-11-12T12:58:59;95449.59;;;9.47;100.00
11049;BME280;5577;42.706;23.160;2022-11-12T13:02:02;95441.03;;;9.50;100.00
11049;BME280;5577;42.706;23.160;2022-11-12T13:04:54;95443.22;;;9.48;100.00
11049;BME280;5577;42.706;23.160;2022-11-12T13:07:42;95439.59;;;9.36;100.00
11049;BME280;5577;42.706;23.160;2022-11-12T13:13:35;95440.88;;;9.47;100.00
11049;BME280;5577;42.706;23.160;2022-11-12T13:17:40;95437.00;;;9.53;100.00
11049;BME280;5577;42.706;23.160;2022-11-12T13:20:16;95443.31;;;9.43;100.00
11049;BME280;5577;42.706;23.160;2022-11-12T13:22:52;95441.44;;;9.35;100.00
11049;BME280;5577;42.706;23.160;2022-11-12T13:25:37;95394.38;;;8.98;100.00
11049;BME280;5577;42.706;23.160;2022-11-12T13:28:24;95449.81;;;9.29;100.00
11049;BME280;5577;42.706;23.160;2022-11-12T13:31:26;95468.75;;;9.22;100.00
11049;BME280;5577;42.706;23.160;2022-11-12T13:34:20;95451.28;;;9.13;100.00
11049;BME280;5577;42.706;23.160;2022-11-12T13:37:05;95453.13;;;9.04;100.00
11049;BME280;5577;42.706;23.160;2022-11-12T13:39:49;95440.13;;;8.85;100.00
11049;BME280;5577;42.706;23.160;2022-11-12T13:42:34;95377.91;;;8.18;100.00
11049;BME280;5577;42.706;23.160;2022-11-12T13:45:41;95476.16;;;8.81;100.00
11049;BME280;5577;42.706;23.160;2022-11-12T13:48:42;95467.97;;;8.69;100.00
11049;BME280;5577;42.706;23.160;2022-11-12T13:51:44;95449.75;;;8.37;100.00
11049;BME280;5577;42.706;23.160;2022-11-12T13:54:37;95478.75;;;8.50;100.00
11049;BME280;5577;42.706;23.160;2022-11-12T14:03:06;95494.59;;;8.37;100.00
11049;BME280;5577;42.706;23.160;2022-11-12T14:05:50;95498.13;;;8.32;100.00
11049;BME280;5577;42.706;23.160;2022-11-12T14:11:53;95499.88;;;8.37;100.00
11049;BME280;5577;42.706;23.160;2022-11-12T14:18:25;95500.59;;;8.29;100.00
11049;BME280;5577;42.706;23.160;2022-11-12T14:21:17;95488.03;;;8.12;100.00
11049;BME280;5577;42.706;23.160;2022-11-12T14:24:02;95506.78;;;8.24;100.00
11049;BME280;5577;42.706;23.160;2022-11-12T14:26:46;95504.97;;;8.20;100.00
11049;BME280;5577;42.706;23.160;2022-11-12T14:29:30;95455.53;;;7.90;100.00
11049;BME280;5577;42.706;23.160;2022-11-12T14:32:14;95504.22;;;8.19;100.00
11049;BME280;5577;42.706;23.160;2022-11-12T14:34:59;95483.22;;;8.14;100.00
11049;BME280;5577;42.706;23.160;2022-11-12T14:37:48;95501.41;;;8.29;100.00
11049;BME280;5577;42.706;23.160;2022-11-12T14:40:37;95497.19;;;8.28;100.00
11049;BME280;5577;42.706;23.160;2022-11-12T14:43:37;95491.44;;;8.26;100.00
11049;BME280;5577;42.706;23.160;2022-11-12T14:46:28;95337.78;;;7.14;100.00
11049;BME280;5577;42.706;23.160;2022-11-12T14:52:26;95445.88;;;7.85;100.00
11049;BME280;5577;42.706;23.160;2022-11-12T14:55:19;95502.59;;;8.10;100.00
11049;BME280;5577;42.706;23.160;2022-11-12T14:58:04;95501.13;;;8.04;100.00
11049;BME280;5577;42.706;23.160;2022-11-12T15:00:52;95464.16;;;7.68;100.00
11049;BME280;5577;42.706;23.160;2022-11-12T15:03:36;95485.53;;;7.80;100.00
11049;BME280;5577;42.706;23.160;2022-11-12T15:06:31;95486.97;;;7.86;100.00
11049;BME280;5577;42.706;23.160;2022-11-12T15:09:17;95499.00;;;7.92;100.00
11049;BME280;5577;42.706;23.160;2022-11-12T15:12:10;95504.09;;;7.89;100.00
11049;BME280;5577;42.706;23.160;2022-11-12T15:15:09;95507.59;;;7.84;100.00
11049;BME280;5577;42.706;23.160;2022-11-12T15:18:02;95518.81;;;7.76;100.00
11049;BME280;5577;42.706;23.160;2022-11-12T15:21:11;95500.28;;;7.81;100.00
11049;BME280;5577;42.706;23.160;2022-11-12T15:26:54;95486.72;;;7.74;100.00
11049;BME280;5577;42.706;23.160;2022-11-12T15:29:39;95496.00;;;7.72;100.00
11049;BME280;5577;42.706;23.160;2022-11-12T15:38:26;95481.94;;;7.63;100.00
11049;BME280;5577;42.706;23.160;2022-11-12T15:41:21;95438.81;;;7.32;100.00
11049;BME280;5577;42.706;23.160;2022-11-12T15:44:08;95493.56;;;7.62;100.00
11049;BME280;5577;42.706;23.160;2022-11-12T15:46:53;95485.16;;;7.60;100.00
11049;BME280;5577;42.706;23.160;2022-11-12T15:49:52;95490.81;;;7.67;100.00
11049;BME280;5577;42.706;23.160;2022-11-12T15:52:36;95484.78;;;7.66;100.00
11049;BME280;5577;42.706;23.160;2022-11-12T15:55:20;95491.59;;;7.67;100.00
11049;BME280;5577;42.706;23.160;2022-11-12T15:58:17;95495.31;;;7.66;100.00
11049;BME280;5577;42.706;23.160;2022-11-12T16:01:03;95494.75;;;7.69;100.00
11049;BME280;5577;42.706;23.160;2022-11-12T16:03:48;95498.13;;;7.70;100.00
11049;BME280;5577;42.706;23.160;2022-11-12T16:06:32;95506.34;;;7.68;100.00
11049;BME280;5577;42.706;23.160;2022-11-12T16:09:16;95498.94;;;7.70;100.00
11049;BME280;5577;42.706;23.160;2022-11-12T16:12:00;95501.56;;;7.70;100.00
11049;BME280;5577;42.706;23.160;2022-11-12T16:14:45;95506.84;;;7.70;100.00
11049;BME280;5577;42.706;23.160;2022-11-12T16:17:28;95510.72;;;7.73;100.00
11049;BME280;5577;42.706;23.160;2022-11-12T16:20:21;95510.16;;;7.76;100.00
11049;BME280;5577;42.706;23.160;2022-11-12T16:23:06;95493.34;;;7.58;100.00
11049;BME280;5577;42.706;23.160;2022-11-12T16:25:50;95465.47;;;7.44;100.00
11049;BME280;5577;42.706;23.160;2022-11-12T16:28:34;95498.34;;;7.73;100.00